sensor_id;sensor_type;location;lat;lon;timestamp;P1;durP1;ratioP1;P2;durP2;ratioP2
32533;SDS011;18973;48.580;8.912;2023-06-05T00:02:01;4.03;;;2.28;;
32533;SDS011;18973;48.580;8.912;2023-06-05T00:04:27;3.72;;;2.20;;
32533;SDS011;18973;48.580;8.912;2023-06-05T00:06:53;3.58;;;2.30;;
32533;SDS011;18973;48.580;8.912;2023-06-05T00:09:19;4.60;;;2.40;;
32533;SDS011;18973;48.580;8.912;2023-06-05T00:11:45;6.20;;;2.42;;
32533;SDS011;18973;48.580;8.912;2023-06-05T00:14:11;4.03;;;2.05;;
32533;SDS011;18973;48.580;8.912;2023-06-05T00:16:37;3.13;;;2.30;;
32533;SDS011;18973;48.580;8.912;2023-06-05T00:19:03;3.65;;;1.95;;
32533;SDS011;18973;48.580;8.912;2023-06-05T00:21:29;5.00;;;2.80;;
32533;SDS011;18973;48.580;8.912;2023-06-05T00:23:55;6.72;;;2.15;;
32533;SDS011;18973;48.580;8.912;2023-06-05T00:26:20;6.82;;;1.98;;
32533;SDS011;18973;48.580;8.912;2023-06-05T00:28:49;5.63;;;2.55;;
32533;SDS011;18973;48.580;8.912;2023-06-05T00:31:15;3.25;;;2.00;;
32533;SDS011;18973;48.580;8.912;2023-06-05T00:33:43;4.00;;;2.70;;
32533;SDS011;18973;48.580;8.912;2023-06-05T00:36:09;3.38;;;2.10;;
32533;SDS011;18973;48.580;8.912;2023-06-05T00:38:36;2.95;;;1.85;;
32533;SDS011;18973;48.580;8.912;2023-06-05T00:41:02;7.93;;;2.08;;
32533;SDS011;18973;48.580;8.912;2023-06-05T00:43:28;4.13;;;1.98;;
32533;SDS011;18973;48.580;8.912;2023-06-05T00:45:56;5.63;;;2.00;;
32533;SDS011;18973;48.580;8.912;2023-06-05T00:48:27;3.25;;;2.47;;
32533;SDS011;18973;48.580;8.912;2023-06-05T00:50:54;4.25;;;2.00;;
32533;SDS011;18973;48.580;8.912;2023-06-05T00:53:19;2.95;;;2.25;;
32533;SDS011;18973;48.580;8.912;2023-06-05T00:55:46;3.83;;;1.90;;
32533;SDS011;18973;48.580;8.912;2023-06-05T00:58:12;3.63;;;1.88;;
32533;SDS011;18973;48.580;8.912;2023-06-05T01:00:40;2.38;;;1.73;;
32533;SDS011;18973;48.580;8.912;2023-06-05T01:03:06;3.53;;;2.17;;
32533;SDS011;18973;48.580;8.912;2023-06-05T01:05:33;4.70;;;2.17;;
32533;SDS011;18973;48.580;8.912;2023-06-05T01:08:02;4.03;;;1.88;;
32533;SDS011;18973;48.580;8.912;2023-06-05T01:10:28;5.28;;;2.00;;
32533;SDS011;18973;48.580;8.912;2023-06-05T01:13:06;5.82;;;2.72;;
32533;SDS011;18973;48.580;8.912;2023-06-05T01:15:40;3.83;;;2.00;;
32533;SDS011;18973;48.580;8.912;2023-06-05T01:18:06;4.88;;;2.20;;
32533;SDS011;18973;48.580;8.912;2023-06-05T01:20:33;3.78;;;2.22;;
32533;SDS011;18973;48.580;8.912;2023-06-05T01:23:07;7.00;;;2.40;;
32533;SDS011;18973;48.580;8.912;2023-06-05T01:25:33;5.13;;;2.17;;
32533;SDS011;18973;48.580;8.912;2023-06-05T01:30:32;4.07;;;2.17;;
32533;SDS011;18973;48.580;8.912;2023-06-05T01:33:10;2.53;;;1.90;;
32533;SDS011;18973;48.580;8.912;2023-06-05T01:35:42;3.15;;;2.17;;
32533;SDS011;18973;48.580;8.912;2023-06-05T01:38:10;4.45;;;2.47;;
32533;SDS011;18973;48.580;8.912;2023-06-05T01:40:36;5.10;;;1.80;;
32533;SDS011;18973;48.580;8.912;2023-06-05T01:43:04;4.45;;;2.40;;
32533;SDS011;18973;48.580;8.912;2023-06-05T01:45:32;3.53;;;2.40;;
32533;SDS011;18973;48.580;8.912;2023-06-05T01:47:58;7.07;;;2.10;;
32533;SDS011;18973;48.580;8.912;2023-06-05T01:50:24;6.03;;;2.70;;
32533;SDS011;18973;48.580;8.912;2023-06-05T01:52:50;4.75;;;2.05;;
32533;SDS011;18973;48.580;8.912;2023-06-05T01:55:21;2.63;;;1.90;;
32533;SDS011;18973;48.580;8.912;2023-06-05T01:57:51;3.92;;;2.38;;
32533;SDS011;18973;48.580;8.912;2023-06-05T02:00:18;4.57;;;2.50;;
32533;SDS011;18973;48.580;8.912;2023-06-05T02:02:44;2.88;;;2.22;;
32533;SDS011;18973;48.580;8.912;2023-06-05T02:05:14;3.20;;;1.90;;
32533;SDS011;18973;48.580;8.912;2023-06-05T02:07:41;4.85;;;2.17;;
32533;SDS011;18973;48.580;8.912;2023-06-05T02:10:23;4.68;;;2.72;;
32533;SDS011;18973;48.580;8.912;2023-06-05T02:12:49;5.28;;;2.72;;
32533;SDS011;18973;48.580;8.912;2023-06-05T02:15:15;3.00;;;1.98;;
32533;SDS011;18973;48.580;8.912;2023-06-05T02:17:41;5.03;;;2.97;;
32533;SDS011;18973;48.580;8.912;2023-06-05T02:20:12;4.00;;;2.45;;
32533;SDS011;18973;48.580;8.912;2023-06-05T02:22:40;4.05;;;2.22;;
32533;SDS011;18973;48.580;8.912;2023-06-05T02:25:06;4.85;;;2.20;;
32533;SDS011;18973;48.580;8.912;2023-06-05T02:27:32;3.70;;;2.45;;
32533;SDS011;18973;48.580;8.912;2023-06-05T02:29:58;3.08;;;1.95;;
32533;SDS011;18973;48.580;8.912;2023-06-05T02:32:24;3.83;;;2.25;;
32533;SDS011;18973;48.580;8.912;2023-06-05T02:34:51;4.13;;;2.13;;
32533;SDS011;18973;48.580;8.912;2023-06-05T02:37:17;4.75;;;2.08;;
32533;SDS011;18973;48.580;8.912;2023-06-05T02:39:44;5.82;;;3.63;;
32533;SDS011;18973;48.580;8.912;2023-06-05T02:42:10;5.03;;;2.40;;
32533;SDS011;18973;48.580;8.912;2023-06-05T02:44:37;4.85;;;2.42;;
32533;SDS011;18973;48.580;8.912;2023-06-05T02:47:03;2.78;;;2.17;;
32533;SDS011;18973;48.580;8.912;2023-06-05T02:49:29;3.75;;;2.42;;
32533;SDS011;18973;48.580;8.912;2023-06-05T02:51:57;2.72;;;2.10;;
32533;SDS011;18973;48.580;8.912;2023-06-05T02:54:22;5.93;;;2.90;;
32533;SDS011;18973;48.580;8.912;2023-06-05T02:56:48;3.65;;;2.40;;
32533;SDS011;18973;48.580;8.912;2023-06-05T02:59:14;4.40;;;2.20;;
32533;SDS011;18973;48.580;8.912;2023-06-05T03:01:40;6.88;;;2.53;;
32533;SDS011;18973;48.580;8.912;2023-06-05T03:04:08;6.75;;;2.22;;
32533;SDS011;18973;48.580;8.912;2023-06-05T03:06:34;3.88;;;2.47;;
32533;SDS011;18973;48.580;8.912;2023-06-05T03:09:00;2.70;;;2.03;;
32533;SDS011;18973;48.580;8.912;2023-06-05T03:11:26;4.28;;;2.55;;
32533;SDS011;18973;48.580;8.912;2023-06-05T03:13:52;3.95;;;2.28;;
32533;SDS011;18973;48.580;8.912;2023-06-05T03:16:18;3.65;;;2.17;;
32533;SDS011;18973;48.580;8.912;2023-06-05T03:18:44;5.72;;;2.28;;
32533;SDS011;18973;48.580;8.912;2023-06-05T03:21:13;5.70;;;2.70;;
32533;SDS011;18973;48.580;8.912;2023-06-05T03:23:39;3.22;;;2.45;;
32533;SDS011;18973;48.580;8.912;2023-06-05T03:26:04;5.13;;;3.03;;
32533;SDS011;18973;48.580;8.912;2023-06-05T03:28:30;5.22;;;2.50;;
32533;SDS011;18973;48.580;8.912;2023-06-05T03:30:58;5.43;;;2.60;;
32533;SDS011;18973;48.580;8.912;2023-06-05T03:33:24;5.63;;;2.42;;
32533;SDS011;18973;48.580;8.912;2023-06-05T03:35:49;4.38;;;2.88;;
32533;SDS011;18973;48.580;8.912;2023-06-05T03:38:17;7.00;;;2.53;;
32533;SDS011;18973;48.580;8.912;2023-06-05T03:40:43;3.97;;;2.78;;
32533;SDS011;18973;48.580;8.912;2023-06-05T03:43:09;5.43;;;2.50;;
32533;SDS011;18973;48.580;8.912;2023-06-05T03:45:36;3.55;;;2.47;;
32533;SDS011;18973;48.580;8.912;2023-06-05T03:48:05;33.83;;;11.93;;
32533;SDS011;18973;48.580;8.912;2023-06-05T03:50:31;21.25;;;7.38;;
32533;SDS011;18973;48.580;8.912;2023-06-05T03:53:02;14.30;;;5.65;;
32533;SDS011;18973;48.580;8.912;2023-06-05T03:55:31;9.60;;;5.18;;
32533;SDS011;18973;48.580;8.912;2023-06-05T03:58:15;14.93;;;5.72;;
32533;SDS011;18973;48.580;8.912;2023-06-05T04:00:42;6.60;;;3.67;;
32533;SDS011;18973;48.580;8.912;2023-06-05T04:03:09;6.20;;;3.30;;
32533;SDS011;18973;48.580;8.912;2023-06-05T04:05:36;7.03;;;3.03;;
32533;SDS011;18973;48.580;8.912;2023-06-05T04:08:02;5.68;;;3.45;;
32533;SDS011;18973;48.580;8.912;2023-06-05T04:10:29;6.00;;;3.10;;
32533;SDS011;18973;48.580;8.912;2023-06-05T04:12:54;5.70;;;2.92;;
32533;SDS011;18973;48.580;8.912;2023-06-05T04:15:21;5.40;;;2.72;;
32533;SDS011;18973;48.580;8.912;2023-06-05T04:17:50;4.65;;;2.90;;
32533;SDS011;18973;48.580;8.912;2023-06-05T04:20:16;3.65;;;2.38;;
32533;SDS011;18973;48.580;8.912;2023-06-05T04:22:42;5.60;;;2.80;;
32533;SDS011;18973;48.580;8.912;2023-06-05T04:25:08;5.97;;;2.53;;
32533;SDS011;18973;48.580;8.912;2023-06-05T04:27:36;3.85;;;2.40;;
32533;SDS011;18973;48.580;8.912;2023-06-05T04:30:06;10.35;;;3.13;;
32533;SDS011;18973;48.580;8.912;2023-06-05T04:32:33;3.85;;;2.88;;
32533;SDS011;18973;48.580;8.912;2023-06-05T04:35:02;8.77;;;4.82;;
32533;SDS011;18973;48.580;8.912;2023-06-05T04:37:28;32.50;;;12.65;;
32533;SDS011;18973;48.580;8.912;2023-06-05T04:39:54;12.40;;;6.13;;
32533;SDS011;18973;48.580;8.912;2023-06-05T04:42:20;15.13;;;6.00;;
32533;SDS011;18973;48.580;8.912;2023-06-05T04:44:59;9.15;;;3.70;;
32533;SDS011;18973;48.580;8.912;2023-06-05T04:47:27;9.45;;;3.50;;
32533;SDS011;18973;48.580;8.912;2023-06-05T04:49:53;9.70;;;3.85;;
32533;SDS011;18973;48.580;8.912;2023-06-05T04:52:19;5.78;;;3.10;;
32533;SDS011;18973;48.580;8.912;2023-06-05T04:54:49;8.48;;;3.10;;
32533;SDS011;18973;48.580;8.912;2023-06-05T04:57:15;5.93;;;2.92;;
32533;SDS011;18973;48.580;8.912;2023-06-05T04:59:44;9.55;;;3.15;;
32533;SDS011;18973;48.580;8.912;2023-06-05T05:02:10;4.60;;;2.70;;
32533;SDS011;18973;48.580;8.912;2023-06-05T05:04:37;9.32;;;3.10;;
32533;SDS011;18973;48.580;8.912;2023-06-05T05:07:03;12.38;;;3.03;;
32533;SDS011;18973;48.580;8.912;2023-06-05T05:09:29;8.10;;;2.97;;
32533;SDS011;18973;48.580;8.912;2023-06-05T05:11:55;6.72;;;2.55;;
32533;SDS011;18973;48.580;8.912;2023-06-05T05:14:23;5.97;;;2.97;;
32533;SDS011;18973;48.580;8.912;2023-06-05T05:16:51;8.73;;;3.25;;
32533;SDS011;18973;48.580;8.912;2023-06-05T05:19:16;7.82;;;2.95;;
32533;SDS011;18973;48.580;8.912;2023-06-05T05:21:42;10.55;;;2.50;;
32533;SDS011;18973;48.580;8.912;2023-06-05T05:24:08;6.65;;;2.80;;
32533;SDS011;18973;48.580;8.912;2023-06-05T05:26:34;7.47;;;2.45;;
32533;SDS011;18973;48.580;8.912;2023-06-05T05:29:00;6.05;;;2.72;;
32533;SDS011;18973;48.580;8.912;2023-06-05T05:31:26;6.32;;;2.42;;
32533;SDS011;18973;48.580;8.912;2023-06-05T05:33:52;4.10;;;2.53;;
32533;SDS011;18973;48.580;8.912;2023-06-05T05:36:20;6.05;;;2.65;;
32533;SDS011;18973;48.580;8.912;2023-06-05T05:38:45;4.28;;;2.70;;
32533;SDS011;18973;48.580;8.912;2023-06-05T05:41:11;4.78;;;2.65;;
32533;SDS011;18973;48.580;8.912;2023-06-05T05:43:37;3.80;;;2.88;;
32533;SDS011;18973;48.580;8.912;2023-06-05T05:46:02;5.22;;;2.63;;
32533;SDS011;18973;48.580;8.912;2023-06-05T05:48:28;8.40;;;3.45;;
32533;SDS011;18973;48.580;8.912;2023-06-05T05:50:54;7.95;;;3.30;;
32533;SDS011;18973;48.580;8.912;2023-06-05T05:53:19;7.18;;;2.65;;
32533;SDS011;18973;48.580;8.912;2023-06-05T05:55:45;3.80;;;2.75;;
32533;SDS011;18973;48.580;8.912;2023-06-05T05:58:11;9.43;;;2.70;;
32533;SDS011;18973;48.580;8.912;2023-06-05T06:00:37;6.55;;;2.70;;
32533;SDS011;18973;48.580;8.912;2023-06-05T06:03:03;13.20;;;3.65;;
32533;SDS011;18973;48.580;8.912;2023-06-05T06:05:31;16.02;;;3.97;;
32533;SDS011;18973;48.580;8.912;2023-06-05T06:07:57;20.40;;;4.45;;
32533;SDS011;18973;48.580;8.912;2023-06-05T06:10:23;27.13;;;5.05;;
32533;SDS011;18973;48.580;8.912;2023-06-05T06:12:49;17.80;;;4.30;;
32533;SDS011;18973;48.580;8.912;2023-06-05T06:15:14;22.30;;;4.10;;
32533;SDS011;18973;48.580;8.912;2023-06-05T06:17:40;15.75;;;3.75;;
32533;SDS011;18973;48.580;8.912;2023-06-05T06:20:06;10.35;;;3.78;;
32533;SDS011;18973;48.580;8.912;2023-06-05T06:22:34;16.10;;;3.42;;
32533;SDS011;18973;48.580;8.912;2023-06-05T06:25:00;11.00;;;3.42;;
32533;SDS011;18973;48.580;8.912;2023-06-05T06:27:26;11.27;;;3.95;;
32533;SDS011;18973;48.580;8.912;2023-06-05T06:29:52;6.88;;;2.85;;
32533;SDS011;18973;48.580;8.912;2023-06-05T06:32:18;10.02;;;2.90;;
32533;SDS011;18973;48.580;8.912;2023-06-05T06:34:44;10.30;;;3.78;;
32533;SDS011;18973;48.580;8.912;2023-06-05T06:37:10;14.20;;;3.47;;
32533;SDS011;18973;48.580;8.912;2023-06-05T06:39:44;8.55;;;3.03;;
32533;SDS011;18973;48.580;8.912;2023-06-05T06:42:10;12.02;;;3.28;;
32533;SDS011;18973;48.580;8.912;2023-06-05T06:44:37;10.73;;;3.78;;
32533;SDS011;18973;48.580;8.912;2023-06-05T06:47:03;10.13;;;3.30;;
32533;SDS011;18973;48.580;8.912;2023-06-05T06:49:29;13.55;;;3.15;;
32533;SDS011;18973;48.580;8.912;2023-06-05T06:51:55;9.57;;;3.10;;
32533;SDS011;18973;48.580;8.912;2023-06-05T06:54:21;9.25;;;3.03;;
32533;SDS011;18973;48.580;8.912;2023-06-05T06:56:47;14.55;;;3.38;;
32533;SDS011;18973;48.580;8.912;2023-06-05T06:59:14;9.75;;;2.92;;
32533;SDS011;18973;48.580;8.912;2023-06-05T07:01:44;19.80;;;3.85;;
32533;SDS011;18973;48.580;8.912;2023-06-05T07:04:15;15.23;;;5.05;;
32533;SDS011;18973;48.580;8.912;2023-06-05T07:06:49;22.95;;;4.38;;
32533;SDS011;18973;48.580;8.912;2023-06-05T07:09:15;18.55;;;3.30;;
32533;SDS011;18973;48.580;8.912;2023-06-05T07:11:41;12.77;;;3.45;;
32533;SDS011;18973;48.580;8.912;2023-06-05T07:14:07;13.68;;;3.15;;
32533;SDS011;18973;48.580;8.912;2023-06-05T07:16:32;22.75;;;4.18;;
32533;SDS011;18973;48.580;8.912;2023-06-05T07:18:58;19.42;;;3.33;;
32533;SDS011;18973;48.580;8.912;2023-06-05T07:21:24;16.67;;;3.45;;
32533;SDS011;18973;48.580;8.912;2023-06-05T07:23:50;14.48;;;3.50;;
32533;SDS011;18973;48.580;8.912;2023-06-05T07:26:19;12.35;;;3.20;;
32533;SDS011;18973;48.580;8.912;2023-06-05T07:28:46;8.10;;;3.30;;
32533;SDS011;18973;48.580;8.912;2023-06-05T07:31:14;13.27;;;3.15;;
32533;SDS011;18973;48.580;8.912;2023-06-05T07:33:40;7.38;;;2.92;;
32533;SDS011;18973;48.580;8.912;2023-06-05T07:36:07;5.72;;;2.67;;
32533;SDS011;18973;48.580;8.912;2023-06-05T07:38:33;9.23;;;2.28;;
32533;SDS011;18973;48.580;8.912;2023-06-05T07:40:59;7.45;;;2.58;;
32533;SDS011;18973;48.580;8.912;2023-06-05T07:43:26;9.73;;;3.20;;
32533;SDS011;18973;48.580;8.912;2023-06-05T07:45:53;5.20;;;2.72;;
32533;SDS011;18973;48.580;8.912;2023-06-05T07:48:19;6.43;;;2.90;;
32533;SDS011;18973;48.580;8.912;2023-06-05T07:50:45;4.53;;;2.53;;
32533;SDS011;18973;48.580;8.912;2023-06-05T07:53:11;7.97;;;3.13;;
32533;SDS011;18973;48.580;8.912;2023-06-05T07:55:37;12.40;;;3.05;;
32533;SDS011;18973;48.580;8.912;2023-06-05T07:58:02;5.30;;;2.55;;
32533;SDS011;18973;48.580;8.912;2023-06-05T08:00:28;4.90;;;2.85;;
32533;SDS011;18973;48.580;8.912;2023-06-05T08:02:54;11.80;;;2.50;;
32533;SDS011;18973;48.580;8.912;2023-06-05T08:05:20;8.65;;;2.58;;
32533;SDS011;18973;48.580;8.912;2023-06-05T08:07:46;11.57;;;3.00;;
32533;SDS011;18973;48.580;8.912;2023-06-05T08:10:12;4.05;;;2.58;;
32533;SDS011;18973;48.580;8.912;2023-06-05T08:12:38;9.18;;;2.42;;
32533;SDS011;18973;48.580;8.912;2023-06-05T08:15:05;13.40;;;3.35;;
32533;SDS011;18973;48.580;8.912;2023-06-05T08:17:34;10.65;;;2.67;;
32533;SDS011;18973;48.580;8.912;2023-06-05T08:20:00;6.03;;;2.85;;
32533;SDS011;18973;48.580;8.912;2023-06-05T08:22:26;10.68;;;2.47;;
32533;SDS011;18973;48.580;8.912;2023-06-05T08:24:53;9.70;;;2.72;;
32533;SDS011;18973;48.580;8.912;2023-06-05T08:27:21;9.38;;;3.00;;
32533;SDS011;18973;48.580;8.912;2023-06-05T08:29:46;8.20;;;3.35;;
32533;SDS011;18973;48.580;8.912;2023-06-05T08:32:12;11.60;;;3.58;;
32533;SDS011;18973;48.580;8.912;2023-06-05T08:34:39;8.32;;;2.55;;
32533;SDS011;18973;48.580;8.912;2023-06-05T08:37:04;9.00;;;3.13;;
32533;SDS011;18973;48.580;8.912;2023-06-05T08:39:30;7.57;;;3.45;;
32533;SDS011;18973;48.580;8.912;2023-06-05T08:41:58;7.55;;;3.95;;
32533;SDS011;18973;48.580;8.912;2023-06-05T08:44:29;5.15;;;3.08;;
32533;SDS011;18973;48.580;8.912;2023-06-05T08:46:59;6.53;;;3.47;;
32533;SDS011;18973;48.580;8.912;2023-06-05T08:49:27;6.85;;;3.55;;
32533;SDS011;18973;48.580;8.912;2023-06-05T08:54:29;6.28;;;3.75;;
32533;SDS011;18973;48.580;8.912;2023-06-05T08:56:59;7.95;;;3.92;;
32533;SDS011;18973;48.580;8.912;2023-06-05T08:59:27;5.20;;;2.90;;
32533;SDS011;18973;48.580;8.912;2023-06-05T09:01:53;7.85;;;3.83;;
32533;SDS011;18973;48.580;8.912;2023-06-05T09:04:20;7.70;;;4.03;;
32533;SDS011;18973;48.580;8.912;2023-06-05T09:06:46;7.35;;;3.45;;
32533;SDS011;18973;48.580;8.912;2023-06-05T09:09:17;4.50;;;3.20;;
32533;SDS011;18973;48.580;8.912;2023-06-05T09:11:43;8.48;;;3.30;;
32533;SDS011;18973;48.580;8.912;2023-06-05T09:14:09;8.60;;;4.18;;
32533;SDS011;18973;48.580;8.912;2023-06-05T09:16:39;9.45;;;3.28;;
32533;SDS011;18973;48.580;8.912;2023-06-05T09:19:08;8.80;;;3.88;;
32533;SDS011;18973;48.580;8.912;2023-06-05T09:21:36;7.18;;;3.50;;
32533;SDS011;18973;48.580;8.912;2023-06-05T09:26:45;9.55;;;5.35;;
32533;SDS011;18973;48.580;8.912;2023-06-05T09:29:23;6.55;;;4.35;;
32533;SDS011;18973;48.580;8.912;2023-06-05T09:31:59;6.68;;;3.67;;
32533;SDS011;18973;48.580;8.912;2023-06-05T09:34:29;7.05;;;4.47;;
32533;SDS011;18973;48.580;8.912;2023-06-05T09:36:57;10.70;;;4.25;;
32533;SDS011;18973;48.580;8.912;2023-06-05T09:39:25;6.25;;;3.80;;
32533;SDS011;18973;48.580;8.912;2023-06-05T09:41:52;7.20;;;4.10;;
32533;SDS011;18973;48.580;8.912;2023-06-05T09:44:19;5.32;;;4.45;;
32533;SDS011;18973;48.580;8.912;2023-06-05T09:51:57;5.40;;;3.75;;
32533;SDS011;18973;48.580;8.912;2023-06-05T09:54:30;5.35;;;3.72;;
32533;SDS011;18973;48.580;8.912;2023-06-05T09:56:57;8.93;;;3.97;;
32533;SDS011;18973;48.580;8.912;2023-06-05T09:59:26;8.30;;;4.30;;
32533;SDS011;18973;48.580;8.912;2023-06-05T10:01:57;10.85;;;4.65;;
32533;SDS011;18973;48.580;8.912;2023-06-05T10:04:32;10.50;;;4.85;;
32533;SDS011;18973;48.580;8.912;2023-06-05T10:07:10;8.32;;;4.05;;
32533;SDS011;18973;48.580;8.912;2023-06-05T10:09:37;6.88;;;3.90;;
32533;SDS011;18973;48.580;8.912;2023-06-05T10:12:05;5.38;;;4.13;;
32533;SDS011;18973;48.580;8.912;2023-06-05T10:14:32;6.45;;;4.07;;
32533;SDS011;18973;48.580;8.912;2023-06-05T10:17:02;6.40;;;3.60;;
32533;SDS011;18973;48.580;8.912;2023-06-05T10:19:27;9.05;;;4.75;;
32533;SDS011;18973;48.580;8.912;2023-06-05T10:21:55;8.82;;;4.25;;
32533;SDS011;18973;48.580;8.912;2023-06-05T10:24:29;11.05;;;3.95;;
32533;SDS011;18973;48.580;8.912;2023-06-05T10:38:01;5.90;;;3.50;;
32533;SDS011;18973;48.580;8.912;2023-06-05T10:40:38;7.60;;;3.92;;
32533;SDS011;18973;48.580;8.912;2023-06-05T10:51:44;5.88;;;3.67;;
32533;SDS011;18973;48.580;8.912;2023-06-05T10:54:12;4.25;;;3.58;;
32533;SDS011;18973;48.580;8.912;2023-06-05T10:59:27;5.18;;;3.33;;
32533;SDS011;18973;48.580;8.912;2023-06-05T11:07:21;9.52;;;4.32;;
32533;SDS011;18973;48.580;8.912;2023-06-05T11:15:06;7.13;;;4.03;;
32533;SDS011;18973;48.580;8.912;2023-06-05T11:17:37;5.82;;;4.03;;
32533;SDS011;18973;48.580;8.912;2023-06-05T11:20:52;6.00;;;3.88;;
32533;SDS011;18973;48.580;8.912;2023-06-05T11:27:47;6.53;;;4.03;;
32533;SDS011;18973;48.580;8.912;2023-06-05T11:30:18;6.63;;;4.28;;
32533;SDS011;18973;48.580;8.912;2023-06-05T11:32:45;6.18;;;3.72;;
32533;SDS011;18973;48.580;8.912;2023-06-05T11:35:12;8.20;;;4.57;;
32533;SDS011;18973;48.580;8.912;2023-06-05T11:37:38;8.25;;;3.97;;
32533;SDS011;18973;48.580;8.912;2023-06-05T11:40:05;4.72;;;3.90;;
32533;SDS011;18973;48.580;8.912;2023-06-05T11:42:37;6.60;;;4.07;;
32533;SDS011;18973;48.580;8.912;2023-06-05T11:45:13;10.75;;;3.80;;
32533;SDS011;18973;48.580;8.912;2023-06-05T11:47:39;7.38;;;4.30;;
32533;SDS011;18973;48.580;8.912;2023-06-05T11:50:08;7.82;;;4.43;;
32533;SDS011;18973;48.580;8.912;2023-06-05T11:52:35;6.10;;;3.63;;
32533;SDS011;18973;48.580;8.912;2023-06-05T11:55:11;5.57;;;4.03;;
32533;SDS011;18973;48.580;8.912;2023-06-05T11:57:43;9.40;;;3.78;;
32533;SDS011;18973;48.580;8.912;2023-06-05T12:00:12;5.28;;;3.83;;
32533;SDS011;18973;48.580;8.912;2023-06-05T12:02:38;8.02;;;4.30;;
32533;SDS011;18973;48.580;8.912;2023-06-05T12:05:06;7.18;;;4.13;;
32533;SDS011;18973;48.580;8.912;2023-06-05T12:07:33;10.88;;;4.35;;
32533;SDS011;18973;48.580;8.912;2023-06-05T12:10:01;7.53;;;3.42;;
32533;SDS011;18973;48.580;8.912;2023-06-05T12:12:49;7.97;;;3.65;;
32533;SDS011;18973;48.580;8.912;2023-06-05T12:15:16;7.00;;;4.22;;
32533;SDS011;18973;48.580;8.912;2023-06-05T12:17:52;9.85;;;4.70;;
32533;SDS011;18973;48.580;8.912;2023-06-05T12:20:19;8.53;;;3.60;;
32533;SDS011;18973;48.580;8.912;2023-06-05T12:22:46;6.50;;;4.18;;
32533;SDS011;18973;48.580;8.912;2023-06-05T12:25:16;6.18;;;4.22;;
32533;SDS011;18973;48.580;8.912;2023-06-05T12:27:45;6.47;;;4.82;;
32533;SDS011;18973;48.580;8.912;2023-06-05T12:30:12;5.47;;;3.95;;
32533;SDS011;18973;48.580;8.912;2023-06-05T12:32:39;8.00;;;4.10;;
32533;SDS011;18973;48.580;8.912;2023-06-05T12:35:05;6.60;;;3.78;;
32533;SDS011;18973;48.580;8.912;2023-06-05T12:37:42;7.10;;;4.03;;
32533;SDS011;18973;48.580;8.912;2023-06-05T12:40:10;7.07;;;3.70;;
32533;SDS011;18973;48.580;8.912;2023-06-05T12:42:37;9.75;;;3.72;;
32533;SDS011;18973;48.580;8.912;2023-06-05T12:45:04;5.70;;;3.60;;
32533;SDS011;18973;48.580;8.912;2023-06-05T12:47:31;4.20;;;3.47;;
32533;SDS011;18973;48.580;8.912;2023-06-05T12:49:58;9.10;;;4.15;;
32533;SDS011;18973;48.580;8.912;2023-06-05T12:52:24;5.40;;;4.07;;
32533;SDS011;18973;48.580;8.912;2023-06-05T12:54:53;7.18;;;3.90;;
32533;SDS011;18973;48.580;8.912;2023-06-05T12:57:19;4.72;;;3.80;;
32533;SDS011;18973;48.580;8.912;2023-06-05T12:59:46;7.57;;;4.15;;
32533;SDS011;18973;48.580;8.912;2023-06-05T13:02:12;6.65;;;3.60;;
32533;SDS011;18973;48.580;8.912;2023-06-05T13:04:38;5.18;;;3.63;;
32533;SDS011;18973;48.580;8.912;2023-06-05T13:07:05;6.30;;;3.40;;
32533;SDS011;18973;48.580;8.912;2023-06-05T13:09:31;8.00;;;3.22;;
32533;SDS011;18973;48.580;8.912;2023-06-05T13:11:57;6.07;;;3.67;;
32533;SDS011;18973;48.580;8.912;2023-06-05T13:14:28;4.85;;;3.38;;
32533;SDS011;18973;48.580;8.912;2023-06-05T13:16:56;4.07;;;3.20;;
32533;SDS011;18973;48.580;8.912;2023-06-05T13:19:22;4.85;;;3.30;;
32533;SDS011;18973;48.580;8.912;2023-06-05T13:21:48;5.57;;;3.53;;
32533;SDS011;18973;48.580;8.912;2023-06-05T13:24:14;8.32;;;3.72;;
32533;SDS011;18973;48.580;8.912;2023-06-05T13:26:40;5.43;;;3.25;;
32533;SDS011;18973;48.580;8.912;2023-06-05T13:29:07;9.85;;;3.25;;
32533;SDS011;18973;48.580;8.912;2023-06-05T13:31:34;7.00;;;3.15;;
32533;SDS011;18973;48.580;8.912;2023-06-05T13:34:00;4.32;;;3.00;;
32533;SDS011;18973;48.580;8.912;2023-06-05T13:36:26;5.15;;;3.15;;
32533;SDS011;18973;48.580;8.912;2023-06-05T13:38:52;6.13;;;3.53;;
32533;SDS011;18973;48.580;8.912;2023-06-05T13:41:18;6.10;;;2.55;;
32533;SDS011;18973;48.580;8.912;2023-06-05T13:43:44;6.70;;;3.30;;
32533;SDS011;18973;48.580;8.912;2023-06-05T13:46:10;7.88;;;3.53;;
32533;SDS011;18973;48.580;8.912;2023-06-05T13:48:36;4.18;;;3.05;;
32533;SDS011;18973;48.580;8.912;2023-06-05T13:51:02;5.07;;;3.10;;
32533;SDS011;18973;48.580;8.912;2023-06-05T13:53:30;6.35;;;2.90;;
32533;SDS011;18973;48.580;8.912;2023-06-05T13:56:05;4.15;;;2.70;;
32533;SDS011;18973;48.580;8.912;2023-06-05T13:58:31;6.70;;;3.45;;
32533;SDS011;18973;48.580;8.912;2023-06-05T14:00:58;5.28;;;3.28;;
32533;SDS011;18973;48.580;8.912;2023-06-05T14:03:24;5.68;;;3.00;;
32533;SDS011;18973;48.580;8.912;2023-06-05T14:05:50;5.35;;;3.03;;
32533;SDS011;18973;48.580;8.912;2023-06-05T14:08:16;3.83;;;2.92;;
32533;SDS011;18973;48.580;8.912;2023-06-05T14:10:41;10.10;;;3.35;;
32533;SDS011;18973;48.580;8.912;2023-06-05T14:13:07;6.95;;;2.85;;
32533;SDS011;18973;48.580;8.912;2023-06-05T14:15:33;5.88;;;3.08;;
32533;SDS011;18973;48.580;8.912;2023-06-05T14:18:04;6.15;;;3.05;;
32533;SDS011;18973;48.580;8.912;2023-06-05T14:20:30;6.32;;;2.83;;
32533;SDS011;18973;48.580;8.912;2023-06-05T14:22:57;5.45;;;3.38;;
32533;SDS011;18973;48.580;8.912;2023-06-05T14:25:23;3.53;;;2.70;;
32533;SDS011;18973;48.580;8.912;2023-06-05T14:27:53;5.57;;;3.30;;
32533;SDS011;18973;48.580;8.912;2023-06-05T14:30:19;4.90;;;2.80;;
32533;SDS011;18973;48.580;8.912;2023-06-05T14:32:46;5.75;;;3.33;;
32533;SDS011;18973;48.580;8.912;2023-06-05T14:35:11;9.30;;;3.22;;
32533;SDS011;18973;48.580;8.912;2023-06-05T14:37:37;4.80;;;3.20;;
32533;SDS011;18973;48.580;8.912;2023-06-05T14:40:03;5.38;;;3.22;;
32533;SDS011;18973;48.580;8.912;2023-06-05T14:42:30;8.32;;;3.25;;
32533;SDS011;18973;48.580;8.912;2023-06-05T14:44:56;6.97;;;3.30;;
32533;SDS011;18973;48.580;8.912;2023-06-05T14:47:21;6.50;;;3.00;;
32533;SDS011;18973;48.580;8.912;2023-06-05T14:49:48;5.55;;;3.47;;
32533;SDS011;18973;48.580;8.912;2023-06-05T14:52:14;4.57;;;2.80;;
32533;SDS011;18973;48.580;8.912;2023-06-05T14:54:40;4.10;;;2.92;;
32533;SDS011;18973;48.580;8.912;2023-06-05T14:57:06;5.63;;;3.00;;
32533;SDS011;18973;48.580;8.912;2023-06-05T14:59:32;3.50;;;3.05;;
32533;SDS011;18973;48.580;8.912;2023-06-05T15:01:58;7.13;;;3.20;;
32533;SDS011;18973;48.580;8.912;2023-06-05T15:04:25;4.93;;;3.13;;
32533;SDS011;18973;48.580;8.912;2023-06-05T15:06:51;7.32;;;3.60;;
32533;SDS011;18973;48.580;8.912;2023-06-05T15:09:18;5.50;;;3.30;;
32533;SDS011;18973;48.580;8.912;2023-06-05T15:11:44;5.22;;;3.45;;
32533;SDS011;18973;48.580;8.912;2023-06-05T15:14:10;4.53;;;3.40;;
32533;SDS011;18973;48.580;8.912;2023-06-05T15:16:36;8.93;;;3.55;;
32533;SDS011;18973;48.580;8.912;2023-06-05T15:19:02;7.00;;;3.13;;
32533;SDS011;18973;48.580;8.912;2023-06-05T15:21:27;6.53;;;3.13;;
32533;SDS011;18973;48.580;8.912;2023-06-05T15:23:53;4.55;;;3.00;;
32533;SDS011;18973;48.580;8.912;2023-06-05T15:26:18;8.13;;;3.30;;
32533;SDS011;18973;48.580;8.912;2023-06-05T15:28:45;4.93;;;3.25;;
32533;SDS011;18973;48.580;8.912;2023-06-05T15:31:11;6.43;;;3.38;;
32533;SDS011;18973;48.580;8.912;2023-06-05T15:33:36;5.72;;;2.95;;
32533;SDS011;18973;48.580;8.912;2023-06-05T15:36:02;6.00;;;2.90;;
32533;SDS011;18973;48.580;8.912;2023-06-05T15:38:28;7.20;;;3.65;;